createdAt,value
2023-04-24T00:00:13.967Z,10.76
2023-04-24T00:02:46.152Z,10.77
2023-04-24T00:05:15.522Z,10.78
2023-04-24T00:07:45.187Z,10.77
2023-04-24T00:10:13.055Z,10.78
2023-04-24T00:12:40.548Z,10.76
2023-04-24T00:15:08.591Z,10.77
2023-04-24T00:17:36.122Z,10.75
2023-04-24T00:20:05.725Z,10.75
2023-04-24T00:22:33.158Z,10.73
2023-04-24T00:25:00.515Z,10.73
2023-04-24T00:27:27.747Z,10.74
2023-04-24T00:29:54.927Z,10.75
2023-04-24T00:32:22.337Z,10.74
2023-04-24T00:34:49.997Z,10.70
2023-04-24T00:37:17.366Z,10.65
2023-04-24T00:39:45.662Z,10.61
2023-04-24T00:42:13.243Z,10.56
2023-04-24T00:44:40.552Z,10.52
2023-04-24T00:47:11.628Z,10.50
2023-04-24T00:49:38.824Z,10.45
2023-04-24T00:52:09.748Z,10.41
2023-04-24T00:54:37.202Z,10.39
2023-04-24T00:57:05.074Z,10.37
2023-04-24T00:59:32.707Z,10.35
2023-04-24T01:02:00.302Z,10.33
2023-04-24T01:04:28.480Z,10.33
2023-04-24T01:06:56.991Z,10.30
2023-04-24T01:09:24.562Z,10.28
2023-04-24T01:11:52.581Z,10.25
2023-04-24T01:14:20.756Z,10.25
2023-04-24T01:16:50.455Z,10.23
2023-04-24T01:19:19.895Z,10.19
2023-04-24T01:21:51.652Z,10.15
2023-04-24T01:24:20.379Z,10.11
2023-04-24T01:26:48.190Z,10.11
2023-04-24T01:29:15.619Z,10.07
2023-04-24T01:31:44.865Z,10.03
2023-04-24T01:34:12.351Z,10.00
2023-04-24T01:36:40.185Z,9.97
2023-04-24T01:39:07.956Z,9.95
2023-04-24T01:41:35.691Z,9.92
2023-04-24T01:44:03.590Z,9.91
2023-04-24T01:46:32.500Z,9.90
2023-04-24T01:49:01.413Z,9.90
2023-04-24T01:51:28.851Z,9.89
2023-04-24T01:53:57.830Z,9.88
2023-04-24T01:56:26.653Z,9.87
2023-04-24T01:58:55.848Z,9.85
2023-04-24T02:01:25.513Z,9.84
2023-04-24T02:03:53.313Z,9.83
2023-04-24T02:06:20.701Z,9.82
2023-04-24T02:08:48.082Z,9.82
2023-04-24T02:11:15.372Z,9.81
2023-04-24T02:13:42.780Z,9.81
2023-04-24T02:16:10.080Z,9.78
2023-04-24T02:18:37.371Z,9.79
2023-04-24T02:21:04.557Z,9.79
2023-04-24T02:23:31.744Z,9.79
2023-04-24T02:25:58.934Z,9.77
2023-04-24T02:28:26.192Z,9.76
2023-04-24T02:30:53.658Z,9.76
2023-04-24T02:33:23.302Z,9.76
2023-04-24T02:35:50.573Z,9.74
2023-04-24T02:38:17.910Z,9.72
2023-04-24T02:40:45.088Z,9.73
2023-04-24T02:43:12.560Z,9.71
2023-04-24T02:45:39.826Z,9.73
2023-04-24T02:48:07.258Z,9.75
2023-04-24T02:50:34.700Z,9.76
2023-04-24T02:53:02.160Z,9.76
2023-04-24T02:55:29.616Z,9.77
2023-04-24T02:57:57.052Z,9.78
2023-04-24T03:00:24.315Z,9.79
2023-04-24T03:02:51.738Z,9.80
2023-04-24T03:05:19.104Z,9.77
2023-04-24T03:07:46.801Z,9.75
2023-04-24T03:10:14.259Z,9.75
2023-04-24T03:12:42.630Z,9.75
2023-04-24T03:15:10.335Z,9.75
2023-04-24T03:17:38.275Z,9.73
2023-04-24T03:20:06.934Z,9.72
2023-04-24T03:22:34.870Z,9.70
2023-04-24T03:25:04.730Z,9.71
2023-04-24T03:27:32.352Z,9.70
2023-04-24T03:30:08.202Z,9.71
2023-04-24T03:32:46.879Z,9.70
2023-04-24T03:35:18.736Z,9.68
2023-04-24T03:37:46.068Z,9.69
2023-04-24T03:40:39.776Z,9.67
2023-04-24T03:43:17.861Z,9.68
2023-04-24T03:45:46.000Z,9.70
2023-04-24T03:48:14.524Z,9.71
2023-04-24T03:50:41.985Z,9.74
2023-04-24T03:53:12.069Z,9.75
2023-04-24T03:55:41.815Z,9.73
2023-04-24T03:58:10.141Z,9.73
2023-04-24T04:00:38.546Z,9.73
2023-04-24T04:03:24.872Z,9.71
2023-04-24T04:05:52.454Z,9.70
2023-04-24T04:08:19.685Z,9.68
2023-04-24T04:10:46.930Z,9.68
2023-04-24T04:13:14.268Z,9.70
2023-04-24T04:15:42.074Z,9.71
2023-04-24T04:18:09.734Z,9.70
2023-04-24T04:20:37.317Z,9.69
2023-04-24T04:23:05.248Z,9.68
2023-04-24T04:26:02.550Z,9.66
2023-04-24T04:28:40.696Z,9.63
2023-04-24T04:31:08.820Z,9.63
2023-04-24T04:33:37.379Z,9.62
2023-04-24T04:36:05.165Z,9.62
2023-04-24T04:38:35.976Z,9.63
2023-04-24T04:41:14.193Z,9.62
2023-04-24T04:43:43.643Z,9.63
2023-04-24T04:46:12.261Z,9.62
2023-04-24T04:49:03.860Z,9.60
2023-04-24T04:51:32.073Z,9.59
2023-04-24T04:53:59.452Z,9.56
2023-04-24T04:56:27.455Z,9.55
2023-04-24T04:58:55.204Z,9.53
2023-04-24T05:01:24.235Z,9.51
2023-04-24T05:03:52.023Z,9.52
2023-04-24T05:06:19.422Z,9.51
2023-04-24T05:08:47.549Z,9.49
2023-04-24T05:11:31.044Z,9.48
2023-04-24T05:13:59.626Z,9.48
2023-04-24T05:16:35.534Z,9.49
2023-04-24T05:19:02.916Z,9.49
2023-04-24T05:21:35.391Z,9.49
2023-04-24T05:24:02.802Z,9.51
2023-04-24T05:26:53.092Z,9.51
2023-04-24T05:29:27.264Z,9.51
2023-04-24T05:31:55.424Z,9.50
2023-04-24T05:34:23.698Z,9.51
2023-04-24T05:36:55.327Z,9.51
2023-04-24T05:39:26.606Z,9.50
2023-04-24T05:41:55.088Z,9.50
2023-04-24T05:44:22.299Z,9.50
2023-04-24T05:46:49.869Z,9.52
2023-04-24T05:49:18.392Z,9.52
2023-04-24T05:51:46.960Z,9.52
2023-04-24T05:54:15.025Z,9.52
2023-04-24T05:56:43.257Z,9.54
2023-04-24T05:59:12.853Z,9.56
2023-04-24T06:01:40.101Z,9.57
2023-04-24T06:04:17.159Z,9.56
2023-04-24T06:06:44.598Z,9.57
2023-04-24T06:09:13.165Z,9.56
2023-04-24T06:11:40.430Z,9.58
2023-04-24T06:14:10.863Z,9.57
2023-04-24T06:16:39.925Z,9.57
2023-04-24T06:19:17.442Z,9.62
2023-04-24T06:21:44.781Z,9.65
2023-04-24T06:24:12.905Z,9.68
2023-04-24T06:26:40.341Z,9.72
2023-04-24T06:29:08.700Z,9.73
2023-04-24T06:31:38.188Z,9.79
2023-04-24T06:34:07.470Z,9.84
2023-04-24T06:36:36.576Z,9.90
2023-04-24T06:39:03.927Z,9.94
2023-04-24T06:41:31.171Z,9.96
2023-04-24T06:43:58.373Z,9.99
2023-04-24T06:46:27.294Z,9.99
2023-04-24T06:48:58.322Z,9.98
2023-04-24T06:51:26.815Z,10.00
2023-04-24T06:53:54.703Z,10.02
2023-04-24T06:56:21.998Z,10.04
2023-04-24T06:58:49.907Z,10.03
2023-04-24T07:01:17.044Z,10.06
2023-04-24T07:03:44.452Z,10.06
2023-04-24T07:06:14.568Z,10.08
2023-04-24T07:08:43.037Z,10.12
2023-04-24T07:11:10.466Z,10.15
2023-04-24T07:13:41.431Z,10.22
2023-04-24T07:16:09.871Z,10.22
2023-04-24T07:18:37.567Z,10.19
2023-04-24T07:21:04.825Z,10.15
2023-04-24T07:23:32.424Z,10.15
2023-04-24T07:25:59.719Z,10.12
2023-04-24T07:28:27.178Z,10.09
2023-04-24T07:30:55.100Z,10.03
2023-04-24T07:33:22.486Z,10.01
2023-04-24T07:35:49.797Z,9.99
2023-04-24T07:38:17.181Z,9.99
2023-04-24T07:40:44.401Z,10.01
2023-04-24T07:43:12.077Z,10.03
2023-04-24T07:45:40.667Z,10.04
2023-04-24T07:48:09.960Z,10.04
2023-04-24T07:50:37.921Z,10.02
2023-04-24T07:53:05.132Z,9.98
2023-04-24T07:55:32.642Z,9.95
2023-04-24T07:57:59.820Z,9.93
2023-04-24T08:00:27.244Z,9.91
2023-04-24T08:02:54.654Z,9.90
2023-04-24T08:05:22.110Z,9.87
2023-04-24T08:07:51.463Z,9.82
2023-04-24T08:10:18.785Z,9.77
2023-04-24T08:12:46.158Z,9.70
2023-04-24T08:15:13.650Z,9.63
2023-04-24T08:17:41.429Z,9.57
2023-04-24T08:20:14.382Z,9.53
2023-04-24T08:22:43.810Z,9.52
2023-04-24T08:25:11.840Z,9.49
2023-04-24T08:27:40.521Z,9.45
2023-04-24T08:30:08.859Z,9.42
2023-04-24T08:32:36.778Z,9.36
2023-04-24T08:35:04.590Z,9.33
2023-04-24T08:37:31.899Z,9.30
2023-04-24T08:39:59.291Z,9.29
2023-04-24T08:42:29.654Z,9.26
2023-04-24T08:44:57.514Z,9.26
2023-04-24T08:47:25.865Z,9.27
2023-04-24T08:49:54.493Z,9.25
2023-04-24T08:52:22.961Z,9.24
2023-04-24T08:54:50.647Z,9.22
2023-04-24T08:57:18.505Z,9.21
2023-04-24T08:59:46.806Z,9.18
2023-04-24T09:02:15.294Z,9.17
2023-04-24T09:04:44.491Z,9.15
2023-04-24T09:07:13.705Z,9.14
2023-04-24T09:09:42.768Z,9.11
2023-04-24T09:12:11.071Z,9.12
2023-04-24T09:14:43.581Z,9.08
2023-04-24T09:17:11.296Z,9.05
2023-04-24T09:19:38.964Z,9.06
2023-04-24T09:22:10.031Z,9.03
2023-04-24T09:24:37.594Z,8.96
2023-04-24T09:27:05.290Z,8.91
2023-04-24T09:29:34.143Z,8.84
2023-04-24T09:32:19.766Z,8.80
2023-04-24T09:34:48.493Z,8.80
2023-04-24T09:37:30.276Z,8.81
2023-04-24T09:40:16.923Z,8.77
2023-04-24T09:42:54.616Z,8.76
2023-04-24T09:45:21.991Z,8.76
2023-04-24T09:47:55.048Z,8.78
2023-04-24T09:50:22.513Z,8.80
2023-04-24T09:53:03.197Z,8.78
2023-04-24T09:55:31.145Z,8.73
2023-04-24T09:58:06.190Z,8.72
2023-04-24T10:00:34.066Z,8.72
2023-04-24T10:03:03.683Z,8.71
2023-04-24T10:05:33.879Z,8.72
2023-04-24T10:08:09.453Z,8.71
2023-04-24T10:10:41.230Z,8.70
2023-04-24T10:13:10.066Z,8.70
2023-04-24T10:15:38.650Z,8.67
2023-04-24T10:18:07.524Z,8.63
2023-04-24T10:20:37.618Z,8.63
2023-04-24T10:23:05.765Z,8.62
2023-04-24T10:25:34.738Z,8.64
2023-04-24T10:28:03.234Z,8.60
2023-04-24T10:30:38.455Z,8.61
2023-04-24T10:33:08.886Z,8.56
2023-04-24T10:35:40.534Z,8.54
2023-04-24T10:38:14.638Z,8.54
2023-04-24T10:40:44.545Z,8.48
2023-04-24T10:43:17.480Z,8.47
2023-04-24T10:46:02.375Z,8.50
2023-04-24T10:48:30.151Z,8.55
2023-04-24T10:50:57.501Z,8.63
2023-04-24T10:53:28.512Z,8.75
2023-04-24T10:55:59.085Z,8.82
2023-04-24T10:58:41.517Z,8.86
2023-04-24T11:01:08.993Z,8.88
2023-04-24T11:03:37.705Z,8.90
2023-04-24T11:06:08.049Z,8.88
2023-04-24T11:08:46.302Z,8.90
2023-04-24T11:11:19.439Z,8.95
2023-04-24T11:13:56.006Z,8.97
2023-04-24T11:16:36.841Z,8.93
2023-04-24T11:19:20.382Z,8.95
2023-04-24T11:21:48.821Z,9.01
2023-04-24T11:24:28.926Z,9.04
2023-04-24T11:26:59.686Z,9.02
2023-04-24T11:29:46.121Z,9.04
2023-04-24T11:32:24.616Z,9.06
2023-04-24T11:34:59.075Z,9.02
2023-04-24T11:37:34.854Z,8.98
2023-04-24T11:40:02.692Z,8.99
2023-04-24T11:42:35.979Z,9.03
2023-04-24T11:45:09.026Z,9.08
2023-04-24T11:47:36.976Z,9.13
2023-04-24T11:50:06.282Z,9.21
2023-04-24T11:52:37.679Z,9.31
2023-04-24T11:55:05.600Z,9.42
2023-04-24T11:57:37.682Z,9.54
2023-04-24T12:00:07.042Z,9.64
2023-04-24T12:02:40.296Z,9.71
2023-04-24T12:05:08.501Z,9.82
2023-04-24T12:07:45.589Z,9.92
2023-04-24T12:10:12.907Z,9.96
2023-04-24T12:12:42.563Z,9.97
2023-04-24T12:15:10.533Z,10.00
2023-04-24T12:17:43.392Z,10.04
2023-04-24T12:20:12.658Z,10.02
2023-04-24T12:22:57.504Z,10.01
2023-04-24T12:25:27.180Z,9.95
2023-04-24T12:27:56.503Z,9.96
2023-04-24T12:30:29.806Z,9.93
2023-04-24T12:33:00.257Z,9.90
2023-04-24T12:35:32.979Z,9.80
2023-04-24T12:38:11.310Z,9.68
2023-04-24T12:40:38.598Z,9.59
2023-04-24T12:43:20.501Z,9.51
2023-04-24T12:45:50.914Z,9.45
2023-04-24T12:48:18.377Z,9.38
2023-04-24T12:50:47.337Z,9.24
2023-04-24T12:53:15.744Z,9.26
2023-04-24T12:55:43.030Z,9.24
2023-04-24T12:58:10.329Z,9.23
2023-04-24T13:00:38.565Z,9.22
2023-04-24T13:03:06.211Z,9.20
2023-04-24T13:05:33.784Z,9.12
2023-04-24T13:08:01.016Z,9.04
2023-04-24T13:10:28.841Z,8.96
2023-04-24T13:12:58.206Z,8.87
2023-04-24T13:15:26.939Z,8.80
2023-04-24T13:17:54.252Z,8.76
2023-04-24T13:20:21.547Z,8.74
2023-04-24T13:22:48.868Z,8.72
2023-04-24T13:25:18.297Z,8.75
2023-04-24T13:27:45.650Z,8.77
2023-04-24T13:30:13.617Z,8.74
2023-04-24T13:32:41.082Z,8.74
2023-04-24T13:35:09.002Z,8.75
2023-04-24T13:37:36.741Z,8.75
2023-04-24T13:40:07.313Z,8.74
2023-04-24T13:42:34.775Z,8.75
2023-04-24T13:45:11.089Z,8.82
2023-04-24T13:47:45.003Z,8.83
2023-04-24T13:50:12.751Z,8.78
2023-04-24T13:52:40.446Z,8.76
2023-04-24T13:55:08.001Z,8.74
2023-04-24T13:57:35.385Z,8.68
2023-04-24T14:00:05.065Z,8.63
2023-04-24T14:02:34.790Z,8.62
2023-04-24T14:05:02.284Z,8.66
2023-04-24T14:07:29.774Z,8.74
2023-04-24T14:09:57.875Z,8.82
2023-04-24T14:12:25.122Z,8.90
2023-04-24T14:14:52.901Z,8.96
2023-04-24T14:17:20.085Z,8.99
2023-04-24T14:19:47.336Z,9.00
2023-04-24T14:22:14.682Z,8.95
2023-04-24T14:24:41.964Z,8.91
2023-04-24T14:27:09.380Z,8.90
2023-04-24T14:29:36.710Z,8.88
2023-04-24T14:32:03.967Z,8.81
2023-04-24T14:34:31.177Z,8.67
2023-04-24T14:36:59.818Z,8.59
2023-04-24T14:39:27.179Z,8.47
2023-04-24T14:41:54.642Z,8.40
2023-04-24T14:44:22.157Z,8.39
2023-04-24T14:46:49.936Z,8.38
2023-04-24T14:49:17.203Z,8.34
2023-04-24T14:51:44.565Z,8.35
2023-04-24T14:54:12.198Z,8.37
2023-04-24T14:56:42.165Z,8.40
2023-04-24T14:59:09.673Z,8.36
2023-04-24T15:01:37.124Z,8.38
2023-04-24T15:04:04.615Z,8.37
2023-04-24T15:06:33.647Z,8.32
2023-04-24T15:09:01.259Z,8.31
2023-04-24T15:11:28.827Z,8.36
2023-04-24T15:13:57.207Z,8.37
2023-04-24T15:16:25.980Z,8.39
2023-04-24T15:18:53.450Z,8.42
2023-04-24T15:21:20.900Z,8.39
2023-04-24T15:23:48.307Z,8.39
2023-04-24T15:26:15.955Z,8.36
2023-04-24T15:28:43.377Z,8.33
2023-04-24T15:31:10.902Z,8.28
2023-04-24T15:33:38.524Z,8.23
2023-04-24T15:36:06.482Z,8.19
2023-04-24T15:38:33.899Z,8.13
2023-04-24T15:41:01.635Z,8.11
2023-04-24T15:43:32.219Z,8.06
2023-04-24T15:45:59.673Z,8.01
2023-04-24T15:48:28.478Z,8.02
2023-04-24T15:50:55.954Z,8.08
2023-04-24T15:53:23.306Z,8.13
2023-04-24T15:55:55.388Z,8.18
2023-04-24T15:58:23.068Z,8.27
2023-04-24T16:00:50.540Z,8.30
2023-04-24T16:03:18.458Z,8.33
2023-04-24T16:05:45.784Z,8.34
2023-04-24T16:08:15.457Z,8.37
2023-04-24T16:10:43.029Z,8.35
2023-04-24T16:13:10.422Z,8.32
2023-04-24T16:15:37.821Z,8.33
2023-04-24T16:18:05.909Z,8.35
2023-04-24T16:20:33.514Z,8.29
2023-04-24T16:23:01.140Z,8.23
2023-04-24T16:25:28.512Z,8.22
2023-04-24T16:27:57.080Z,8.19
2023-04-24T16:30:24.466Z,8.15
2023-04-24T16:32:51.910Z,8.11
2023-04-24T16:35:19.516Z,8.11
2023-04-24T16:37:46.885Z,8.12
2023-04-24T16:40:14.322Z,8.12
2023-04-24T16:42:41.794Z,8.14
2023-04-24T16:45:09.541Z,8.15
2023-04-24T16:47:37.022Z,8.17
2023-04-24T16:50:04.914Z,8.13
2023-04-24T16:52:32.193Z,8.12
2023-04-24T16:54:59.554Z,8.13
2023-04-24T16:57:26.925Z,8.15
2023-04-24T16:59:54.145Z,8.13
2023-04-24T17:02:21.500Z,8.16
2023-04-24T17:04:48.900Z,8.15
2023-04-24T17:07:17.723Z,8.13
2023-04-24T17:09:45.069Z,8.10
2023-04-24T17:12:12.563Z,8.09
2023-04-24T17:14:39.841Z,8.02
2023-04-24T17:17:07.945Z,8.00
2023-04-24T17:19:36.811Z,7.95
2023-04-24T17:22:05.966Z,7.93
2023-04-24T17:24:33.885Z,7.95
2023-04-24T17:27:08.136Z,7.95
2023-04-24T17:29:42.040Z,7.93
2023-04-24T17:32:09.711Z,7.91
2023-04-24T17:34:37.134Z,7.89
2023-04-24T17:37:04.832Z,7.84
2023-04-24T17:39:32.372Z,7.73
2023-04-24T17:41:59.657Z,7.68
2023-04-24T17:44:27.178Z,7.64
2023-04-24T17:46:54.461Z,7.61
2023-04-24T17:49:22.165Z,7.58
2023-04-24T17:51:49.425Z,7.57
2023-04-24T17:54:18.242Z,7.52
2023-04-24T17:56:46.031Z,7.51
2023-04-24T17:59:13.414Z,7.53
2023-04-24T18:01:40.770Z,7.53
2023-04-24T18:04:08.841Z,7.51
2023-04-24T18:06:36.417Z,7.50
2023-04-24T18:09:04.054Z,7.46
2023-04-24T18:11:31.636Z,7.46
2023-04-24T18:13:58.884Z,7.46
2023-04-24T18:16:26.387Z,7.40
2023-04-24T18:18:54.022Z,7.44
2023-04-24T18:21:21.552Z,7.41
2023-04-24T18:23:49.234Z,7.42
2023-04-24T18:26:17.159Z,7.40
2023-04-24T18:28:44.702Z,7.39
2023-04-24T18:31:12.260Z,7.38
2023-04-24T18:33:39.930Z,7.34
2023-04-24T18:36:07.597Z,7.34
2023-04-24T18:38:36.709Z,7.31
2023-04-24T18:41:04.632Z,7.30
2023-04-24T18:43:34.350Z,7.29
2023-04-24T18:46:01.697Z,7.28
2023-04-24T18:48:31.180Z,7.28
2023-04-24T18:50:58.502Z,7.29
2023-04-24T18:53:26.109Z,7.29
2023-04-24T18:55:53.392Z,7.29
2023-04-24T18:58:20.689Z,7.29
2023-04-24T19:00:48.253Z,7.28
2023-04-24T19:03:15.826Z,7.29
2023-04-24T19:05:43.274Z,7.29
2023-04-24T19:08:10.763Z,7.27
2023-04-24T19:10:38.389Z,7.25
2023-04-24T19:13:05.853Z,7.23
2023-04-24T19:15:33.874Z,7.21
2023-04-24T19:18:01.675Z,7.18
2023-04-24T19:20:29.252Z,7.17
2023-04-24T19:22:57.429Z,7.15
2023-04-24T19:25:25.267Z,7.15
2023-04-24T19:27:52.941Z,7.14
2023-04-24T19:30:22.626Z,7.15
2023-04-24T19:32:49.914Z,7.14
2023-04-24T19:35:17.766Z,7.14
2023-04-24T19:37:45.157Z,7.14
2023-04-24T19:40:13.137Z,7.14
2023-04-24T19:42:44.221Z,7.13
2023-04-24T19:45:12.979Z,7.13
2023-04-24T19:47:40.739Z,7.10
2023-04-24T19:50:08.609Z,7.12
2023-04-24T19:52:35.991Z,7.14
2023-04-24T19:55:04.077Z,7.17
2023-04-24T19:57:31.338Z,7.18
2023-04-24T19:59:58.706Z,7.20
2023-04-24T20:02:26.355Z,7.21
2023-04-24T20:04:54.070Z,7.20
2023-04-24T20:07:21.946Z,7.21
2023-04-24T20:09:49.208Z,7.24
2023-04-24T20:12:16.611Z,7.27
2023-04-24T20:14:44.014Z,7.28
2023-04-24T20:17:11.348Z,7.28
2023-04-24T20:19:41.167Z,7.28
2023-04-24T20:22:11.853Z,7.29
2023-04-24T20:24:40.724Z,7.29
2023-04-24T20:27:08.193Z,7.31
2023-04-24T20:29:35.837Z,7.34
2023-04-24T20:32:03.258Z,7.38
2023-04-24T20:34:31.923Z,7.40
2023-04-24T20:36:59.498Z,7.42
2023-04-24T20:39:27.055Z,7.43
2023-04-24T20:41:54.554Z,7.43
2023-04-24T20:44:22.713Z,7.41
2023-04-24T20:46:50.080Z,7.39
2023-04-24T20:49:17.563Z,7.40
2023-04-24T20:51:45.373Z,7.39
2023-04-24T20:54:12.979Z,7.38
2023-04-24T20:56:40.256Z,7.36
2023-04-24T20:59:07.949Z,7.35
2023-04-24T21:01:35.606Z,7.35
2023-04-24T21:04:03.499Z,7.33
2023-04-24T21:06:32.162Z,7.33
2023-04-24T21:08:59.666Z,7.32
2023-04-24T21:11:27.166Z,7.32
2023-04-24T21:13:54.459Z,7.31
2023-04-24T21:16:21.910Z,7.23
2023-04-24T21:18:49.212Z,7.16
2023-04-24T21:21:16.511Z,7.11
2023-04-24T21:23:43.727Z,7.08
2023-04-24T21:26:11.350Z,7.08
2023-04-24T21:28:38.755Z,7.07
2023-04-24T21:31:06.032Z,7.07
2023-04-24T21:33:33.397Z,7.07
2023-04-24T21:36:02.061Z,7.06
2023-04-24T21:38:29.921Z,7.05
2023-04-24T21:40:57.175Z,7.06
2023-04-24T21:43:37.051Z,7.04
2023-04-24T21:46:11.396Z,7.03
2023-04-24T21:48:39.588Z,7.05
2023-04-24T21:51:06.977Z,7.06
2023-04-24T21:53:34.228Z,7.08
2023-04-24T21:56:03.168Z,7.09
2023-04-24T21:58:30.600Z,7.07
2023-04-24T22:00:58.343Z,7.07
2023-04-24T22:03:25.890Z,7.09
2023-04-24T22:05:53.318Z,7.07
2023-04-24T22:08:20.922Z,7.06
2023-04-24T22:10:48.824Z,7.02
2023-04-24T22:13:16.249Z,7.02
2023-04-24T22:15:43.603Z,7.03
2023-04-24T22:18:11.977Z,7.00
2023-04-24T22:20:39.861Z,6.97
2023-04-24T22:23:07.280Z,6.94
2023-04-24T22:25:34.569Z,6.93
2023-04-24T22:28:01.892Z,6.88
2023-04-24T22:30:29.450Z,6.87
2023-04-24T22:32:58.221Z,6.86
2023-04-24T22:35:25.623Z,6.86
2023-04-24T22:37:56.694Z,6.88
2023-04-24T22:40:25.196Z,6.87
2023-04-24T22:42:53.332Z,6.86
2023-04-24T22:45:23.870Z,6.85
2023-04-24T22:47:53.696Z,6.83
2023-04-24T22:50:21.326Z,6.81
2023-04-24T22:52:48.723Z,6.80
2023-04-24T22:55:16.091Z,6.81
2023-04-24T22:57:43.497Z,6.80
2023-04-24T23:00:12.740Z,6.79
2023-04-24T23:02:41.430Z,6.79
2023-04-24T23:05:11.030Z,6.78
2023-04-24T23:07:38.810Z,6.78
2023-04-24T23:10:07.291Z,6.77
2023-04-24T23:12:34.607Z,6.79
2023-04-24T23:15:01.983Z,6.79
2023-04-24T23:17:29.561Z,6.78
2023-04-24T23:19:56.899Z,6.78
2023-04-24T23:22:24.352Z,6.79
2023-04-24T23:24:51.996Z,6.76
2023-04-24T23:27:19.402Z,6.73
2023-04-24T23:29:46.676Z,6.72
2023-04-24T23:32:14.032Z,6.72
2023-04-24T23:34:41.580Z,6.70
2023-04-24T23:37:08.962Z,6.67
2023-04-24T23:39:36.450Z,6.63
2023-04-24T23:42:04.379Z,6.62
2023-04-24T23:44:31.776Z,6.62
2023-04-24T23:46:59.200Z,6.61
2023-04-24T23:49:27.307Z,6.59
2023-04-24T23:51:54.711Z,6.58
2023-04-24T23:54:23.500Z,6.58
2023-04-24T23:56:50.799Z,6.55
2023-04-24T23:59:20.722Z,6.49
